sensor_id;sensor_type;location;lat;lon;timestamp;P1;durP1;ratioP1;P2;durP2;ratioP2
32319;SDS011;19080;51.750;5.888;2022-08-03T00:01:36;5.35;;;2.08;;
32319;SDS011;19080;51.750;5.888;2022-08-03T00:04:04;2.95;;;1.50;;
32319;SDS011;19080;51.750;5.888;2022-08-03T00:06:31;2.53;;;1.70;;
32319;SDS011;19080;51.750;5.888;2022-08-03T00:09:03;4.53;;;1.75;;
32319;SDS011;19080;51.750;5.888;2022-08-03T00:11:30;4.97;;;2.05;;
32319;SDS011;19080;51.750;5.888;2022-08-03T00:13:56;4.75;;;1.63;;
32319;SDS011;19080;51.750;5.888;2022-08-03T00:16:23;3.70;;;1.40;;
32319;SDS011;19080;51.750;5.888;2022-08-03T00:18:50;6.00;;;1.98;;
32319;SDS011;19080;51.750;5.888;2022-08-03T00:21:18;4.47;;;1.67;;
32319;SDS011;19080;51.750;5.888;2022-08-03T00:23:46;2.67;;;1.40;;
32319;SDS011;19080;51.750;5.888;2022-08-03T00:26:18;2.67;;;1.90;;
32319;SDS011;19080;51.750;5.888;2022-08-03T00:28:44;5.63;;;2.00;;
32319;SDS011;19080;51.750;5.888;2022-08-03T00:31:11;3.53;;;1.73;;
32319;SDS011;19080;51.750;5.888;2022-08-03T00:33:39;4.72;;;2.15;;
32319;SDS011;19080;51.750;5.888;2022-08-03T00:36:25;2.92;;;2.00;;
32319;SDS011;19080;51.750;5.888;2022-08-03T00:38:51;4.13;;;1.40;;
32319;SDS011;19080;51.750;5.888;2022-08-03T00:41:18;4.97;;;1.50;;
32319;SDS011;19080;51.750;5.888;2022-08-03T00:43:44;3.35;;;1.88;;
32319;SDS011;19080;51.750;5.888;2022-08-03T00:46:12;3.80;;;1.95;;
32319;SDS011;19080;51.750;5.888;2022-08-03T00:48:46;4.25;;;1.65;;
32319;SDS011;19080;51.750;5.888;2022-08-03T00:51:12;3.33;;;1.30;;
32319;SDS011;19080;51.750;5.888;2022-08-03T00:53:39;4.18;;;1.80;;
32319;SDS011;19080;51.750;5.888;2022-08-03T00:56:05;3.60;;;2.08;;
32319;SDS011;19080;51.750;5.888;2022-08-03T00:58:32;3.30;;;2.15;;
32319;SDS011;19080;51.750;5.888;2022-08-03T01:00:58;2.70;;;1.65;;
32319;SDS011;19080;51.750;5.888;2022-08-03T01:03:25;4.05;;;1.75;;
32319;SDS011;19080;51.750;5.888;2022-08-03T01:05:59;6.07;;;2.10;;
32319;SDS011;19080;51.750;5.888;2022-08-03T01:08:51;5.10;;;2.22;;
32319;SDS011;19080;51.750;5.888;2022-08-03T01:19:44;8.40;;;2.58;;
32319;SDS011;19080;51.750;5.888;2022-08-03T01:22:30;5.82;;;2.35;;
32319;SDS011;19080;51.750;5.888;2022-08-03T01:30:31;5.00;;;2.65;;
32319;SDS011;19080;51.750;5.888;2022-08-03T01:33:21;6.22;;;2.65;;
32319;SDS011;19080;51.750;5.888;2022-08-03T01:35:47;4.50;;;2.20;;
32319;SDS011;19080;51.750;5.888;2022-08-03T01:38:29;4.32;;;2.08;;
32319;SDS011;19080;51.750;5.888;2022-08-03T01:40:57;4.53;;;2.33;;
32319;SDS011;19080;51.750;5.888;2022-08-03T01:43:27;6.72;;;2.05;;
32319;SDS011;19080;51.750;5.888;2022-08-03T01:46:14;4.47;;;2.20;;
32319;SDS011;19080;51.750;5.888;2022-08-03T01:48:42;5.40;;;1.92;;
32319;SDS011;19080;51.750;5.888;2022-08-03T01:51:09;3.95;;;2.38;;
32319;SDS011;19080;51.750;5.888;2022-08-03T01:53:37;7.28;;;2.50;;
32319;SDS011;19080;51.750;5.888;2022-08-03T01:56:05;5.10;;;2.35;;
32319;SDS011;19080;51.750;5.888;2022-08-03T01:58:32;6.05;;;2.50;;
32319;SDS011;19080;51.750;5.888;2022-08-03T02:01:00;2.80;;;2.20;;
32319;SDS011;19080;51.750;5.888;2022-08-03T02:03:27;7.85;;;3.42;;
32319;SDS011;19080;51.750;5.888;2022-08-03T02:05:55;5.72;;;2.70;;
32319;SDS011;19080;51.750;5.888;2022-08-03T02:08:42;6.32;;;2.65;;
32319;SDS011;19080;51.750;5.888;2022-08-03T02:11:10;6.78;;;3.45;;
32319;SDS011;19080;51.750;5.888;2022-08-03T02:13:39;4.53;;;2.80;;
32319;SDS011;19080;51.750;5.888;2022-08-03T02:16:05;6.65;;;3.20;;
32319;SDS011;19080;51.750;5.888;2022-08-03T02:18:32;6.80;;;3.60;;
32319;SDS011;19080;51.750;5.888;2022-08-03T02:21:00;6.57;;;3.60;;
32319;SDS011;19080;51.750;5.888;2022-08-03T02:23:36;6.47;;;3.10;;
32319;SDS011;19080;51.750;5.888;2022-08-03T02:26:04;4.72;;;3.70;;
32319;SDS011;19080;51.750;5.888;2022-08-03T02:28:33;11.10;;;4.25;;
32319;SDS011;19080;51.750;5.888;2022-08-03T02:31:03;5.45;;;3.78;;
32319;SDS011;19080;51.750;5.888;2022-08-03T02:33:35;8.55;;;4.03;;
32319;SDS011;19080;51.750;5.888;2022-08-03T02:38:33;4.22;;;2.85;;
32319;SDS011;19080;51.750;5.888;2022-08-03T02:41:00;6.50;;;3.70;;
32319;SDS011;19080;51.750;5.888;2022-08-03T02:43:29;8.93;;;4.53;;
32319;SDS011;19080;51.750;5.888;2022-08-03T02:46:17;9.07;;;4.20;;
32319;SDS011;19080;51.750;5.888;2022-08-03T02:48:45;6.93;;;4.20;;
32319;SDS011;19080;51.750;5.888;2022-08-03T02:51:12;10.82;;;4.75;;
32319;SDS011;19080;51.750;5.888;2022-08-03T02:53:39;5.13;;;4.05;;
32319;SDS011;19080;51.750;5.888;2022-08-03T02:56:07;11.38;;;4.97;;
32319;SDS011;19080;51.750;5.888;2022-08-03T02:58:34;10.38;;;5.45;;
32319;SDS011;19080;51.750;5.888;2022-08-03T03:01:02;7.07;;;4.63;;
32319;SDS011;19080;51.750;5.888;2022-08-03T03:03:29;8.00;;;4.63;;
32319;SDS011;19080;51.750;5.888;2022-08-03T03:06:07;11.82;;;5.18;;
32319;SDS011;19080;51.750;5.888;2022-08-03T03:08:34;7.55;;;4.25;;
32319;SDS011;19080;51.750;5.888;2022-08-03T03:11:04;7.68;;;3.95;;
32319;SDS011;19080;51.750;5.888;2022-08-03T03:13:32;7.55;;;4.38;;
32319;SDS011;19080;51.750;5.888;2022-08-03T03:15:59;6.95;;;4.82;;
32319;SDS011;19080;51.750;5.888;2022-08-03T03:18:32;6.07;;;4.07;;
32319;SDS011;19080;51.750;5.888;2022-08-03T03:21:02;6.10;;;5.05;;
32319;SDS011;19080;51.750;5.888;2022-08-03T03:23:30;8.15;;;5.40;;
32319;SDS011;19080;51.750;5.888;2022-08-03T03:25:59;9.45;;;5.05;;
32319;SDS011;19080;51.750;5.888;2022-08-03T03:28:27;8.00;;;4.80;;
32319;SDS011;19080;51.750;5.888;2022-08-03T03:30:53;8.80;;;5.00;;
32319;SDS011;19080;51.750;5.888;2022-08-03T03:33:21;7.90;;;5.15;;
32319;SDS011;19080;51.750;5.888;2022-08-03T03:35:48;6.70;;;4.95;;
32319;SDS011;19080;51.750;5.888;2022-08-03T03:38:14;14.77;;;6.38;;
32319;SDS011;19080;51.750;5.888;2022-08-03T03:40:41;6.55;;;4.82;;
32319;SDS011;19080;51.750;5.888;2022-08-03T03:43:08;7.32;;;4.03;;
32319;SDS011;19080;51.750;5.888;2022-08-03T03:45:35;7.28;;;5.38;;
32319;SDS011;19080;51.750;5.888;2022-08-03T03:48:05;7.93;;;5.18;;
32319;SDS011;19080;51.750;5.888;2022-08-03T03:50:32;9.00;;;5.18;;
32319;SDS011;19080;51.750;5.888;2022-08-03T03:53:02;8.90;;;5.45;;
32319;SDS011;19080;51.750;5.888;2022-08-03T03:55:29;9.25;;;5.28;;
32319;SDS011;19080;51.750;5.888;2022-08-03T03:57:56;10.05;;;5.68;;
32319;SDS011;19080;51.750;5.888;2022-08-03T04:00:22;8.50;;;5.68;;
32319;SDS011;19080;51.750;5.888;2022-08-03T04:02:49;9.13;;;6.13;;
32319;SDS011;19080;51.750;5.888;2022-08-03T04:05:15;15.57;;;7.03;;
32319;SDS011;19080;51.750;5.888;2022-08-03T04:08:02;9.93;;;6.70;;
32319;SDS011;19080;51.750;5.888;2022-08-03T04:13:46;6.68;;;5.18;;
32319;SDS011;19080;51.750;5.888;2022-08-03T04:16:15;5.40;;;4.65;;
32319;SDS011;19080;51.750;5.888;2022-08-03T04:18:44;8.07;;;5.50;;
32319;SDS011;19080;51.750;5.888;2022-08-03T04:21:14;9.70;;;5.82;;
32319;SDS011;19080;51.750;5.888;2022-08-03T04:23:42;10.63;;;5.78;;
32319;SDS011;19080;51.750;5.888;2022-08-03T04:26:10;9.82;;;5.97;;
32319;SDS011;19080;51.750;5.888;2022-08-03T04:28:38;13.88;;;5.68;;
32319;SDS011;19080;51.750;5.888;2022-08-03T04:31:05;10.15;;;6.63;;
32319;SDS011;19080;51.750;5.888;2022-08-03T04:33:32;10.18;;;6.05;;
32319;SDS011;19080;51.750;5.888;2022-08-03T04:36:03;7.78;;;5.55;;
32319;SDS011;19080;51.750;5.888;2022-08-03T04:38:30;6.30;;;5.68;;
32319;SDS011;19080;51.750;5.888;2022-08-03T04:40:58;9.13;;;6.15;;
32319;SDS011;19080;51.750;5.888;2022-08-03T04:43:25;10.20;;;5.78;;
32319;SDS011;19080;51.750;5.888;2022-08-03T04:45:52;11.05;;;6.13;;
32319;SDS011;19080;51.750;5.888;2022-08-03T04:48:19;9.68;;;6.20;;
32319;SDS011;19080;51.750;5.888;2022-08-03T04:50:47;8.70;;;5.85;;
32319;SDS011;19080;51.750;5.888;2022-08-03T04:53:14;7.38;;;5.47;;
32319;SDS011;19080;51.750;5.888;2022-08-03T04:55:41;7.30;;;5.65;;
32319;SDS011;19080;51.750;5.888;2022-08-03T04:58:08;8.43;;;6.40;;
32319;SDS011;19080;51.750;5.888;2022-08-03T05:00:34;9.20;;;6.63;;
32319;SDS011;19080;51.750;5.888;2022-08-03T05:03:01;10.70;;;6.13;;
32319;SDS011;19080;51.750;5.888;2022-08-03T05:05:27;9.63;;;6.65;;
32319;SDS011;19080;51.750;5.888;2022-08-03T05:08:14;10.82;;;6.90;;
32319;SDS011;19080;51.750;5.888;2022-08-03T05:14:01;10.60;;;5.70;;
32319;SDS011;19080;51.750;5.888;2022-08-03T05:16:27;10.10;;;6.45;;
32319;SDS011;19080;51.750;5.888;2022-08-03T05:18:53;10.38;;;6.38;;
32319;SDS011;19080;51.750;5.888;2022-08-03T05:21:20;11.30;;;6.95;;
32319;SDS011;19080;51.750;5.888;2022-08-03T05:23:46;10.25;;;5.80;;
32319;SDS011;19080;51.750;5.888;2022-08-03T05:26:13;7.00;;;5.88;;
32319;SDS011;19080;51.750;5.888;2022-08-03T05:28:39;8.07;;;6.45;;
32319;SDS011;19080;51.750;5.888;2022-08-03T05:31:16;9.15;;;5.78;;
32319;SDS011;19080;51.750;5.888;2022-08-03T05:33:42;9.02;;;6.22;;
32319;SDS011;19080;51.750;5.888;2022-08-03T05:36:11;9.38;;;5.65;;
32319;SDS011;19080;51.750;5.888;2022-08-03T05:38:37;8.38;;;5.68;;
32319;SDS011;19080;51.750;5.888;2022-08-03T05:41:04;12.55;;;6.32;;
32319;SDS011;19080;51.750;5.888;2022-08-03T05:43:49;10.85;;;6.60;;
32319;SDS011;19080;51.750;5.888;2022-08-03T05:46:16;8.38;;;5.88;;
32319;SDS011;19080;51.750;5.888;2022-08-03T05:48:43;10.32;;;5.63;;
32319;SDS011;19080;51.750;5.888;2022-08-03T05:51:10;9.48;;;5.40;;
32319;SDS011;19080;51.750;5.888;2022-08-03T05:53:38;12.82;;;6.45;;
32319;SDS011;19080;51.750;5.888;2022-08-03T05:56:04;13.43;;;6.22;;
32319;SDS011;19080;51.750;5.888;2022-08-03T05:58:42;10.88;;;5.80;;
32319;SDS011;19080;51.750;5.888;2022-08-03T06:01:09;12.65;;;6.35;;
32319;SDS011;19080;51.750;5.888;2022-08-03T06:03:36;10.00;;;5.30;;
32319;SDS011;19080;51.750;5.888;2022-08-03T06:06:02;18.20;;;6.82;;
32319;SDS011;19080;51.750;5.888;2022-08-03T06:08:29;9.43;;;5.40;;
32319;SDS011;19080;51.750;5.888;2022-08-03T06:10:55;7.95;;;4.32;;
32319;SDS011;19080;51.750;5.888;2022-08-03T06:13:23;12.02;;;4.53;;
32319;SDS011;19080;51.750;5.888;2022-08-03T06:15:49;9.70;;;4.13;;
32319;SDS011;19080;51.750;5.888;2022-08-03T06:18:15;16.08;;;5.18;;
32319;SDS011;19080;51.750;5.888;2022-08-03T06:20:42;12.98;;;4.80;;
32319;SDS011;19080;51.750;5.888;2022-08-03T06:23:09;13.88;;;4.30;;
32319;SDS011;19080;51.750;5.888;2022-08-03T06:25:41;10.27;;;4.45;;
32319;SDS011;19080;51.750;5.888;2022-08-03T06:28:08;15.07;;;4.30;;
32319;SDS011;19080;51.750;5.888;2022-08-03T06:30:49;9.80;;;3.70;;
32319;SDS011;19080;51.750;5.888;2022-08-03T06:33:15;13.00;;;5.03;;
32319;SDS011;19080;51.750;5.888;2022-08-03T06:35:42;12.60;;;3.50;;
32319;SDS011;19080;51.750;5.888;2022-08-03T06:38:10;12.90;;;3.90;;
32319;SDS011;19080;51.750;5.888;2022-08-03T06:40:38;8.82;;;3.42;;
32319;SDS011;19080;51.750;5.888;2022-08-03T06:43:07;8.63;;;3.05;;
32319;SDS011;19080;51.750;5.888;2022-08-03T06:45:38;9.60;;;3.13;;
32319;SDS011;19080;51.750;5.888;2022-08-03T06:48:13;5.60;;;2.50;;
32319;SDS011;19080;51.750;5.888;2022-08-03T06:50:40;11.85;;;2.80;;
32319;SDS011;19080;51.750;5.888;2022-08-03T06:53:07;13.23;;;2.92;;
32319;SDS011;19080;51.750;5.888;2022-08-03T06:55:43;17.58;;;3.38;;
32319;SDS011;19080;51.750;5.888;2022-08-03T06:58:09;13.77;;;3.05;;
32319;SDS011;19080;51.750;5.888;2022-08-03T07:00:36;11.23;;;2.65;;
32319;SDS011;19080;51.750;5.888;2022-08-03T07:03:02;10.07;;;2.83;;
32319;SDS011;19080;51.750;5.888;2022-08-03T07:05:28;8.70;;;2.33;;
32319;SDS011;19080;51.750;5.888;2022-08-03T07:07:56;10.30;;;2.42;;
32319;SDS011;19080;51.750;5.888;2022-08-03T07:10:22;11.93;;;3.15;;
32319;SDS011;19080;51.750;5.888;2022-08-03T07:12:49;11.20;;;2.97;;
32319;SDS011;19080;51.750;5.888;2022-08-03T07:15:23;19.27;;;3.33;;
32319;SDS011;19080;51.750;5.888;2022-08-03T07:18:09;8.68;;;2.35;;
32319;SDS011;19080;51.750;5.888;2022-08-03T07:20:36;12.63;;;2.65;;
32319;SDS011;19080;51.750;5.888;2022-08-03T07:23:02;10.82;;;3.05;;
32319;SDS011;19080;51.750;5.888;2022-08-03T07:25:28;13.18;;;3.03;;
32319;SDS011;19080;51.750;5.888;2022-08-03T07:27:55;14.18;;;2.90;;
32319;SDS011;19080;51.750;5.888;2022-08-03T07:30:21;14.73;;;3.10;;
32319;SDS011;19080;51.750;5.888;2022-08-03T07:32:48;18.58;;;2.75;;
32319;SDS011;19080;51.750;5.888;2022-08-03T07:35:16;15.55;;;3.35;;
32319;SDS011;19080;51.750;5.888;2022-08-03T07:37:51;10.63;;;2.67;;
32319;SDS011;19080;51.750;5.888;2022-08-03T07:40:20;15.55;;;2.75;;
32319;SDS011;19080;51.750;5.888;2022-08-03T07:42:47;15.52;;;2.97;;
32319;SDS011;19080;51.750;5.888;2022-08-03T07:45:18;8.18;;;2.58;;
32319;SDS011;19080;51.750;5.888;2022-08-03T07:47:45;13.48;;;3.58;;
32319;SDS011;19080;51.750;5.888;2022-08-03T07:50:19;12.63;;;2.63;;
32319;SDS011;19080;51.750;5.888;2022-08-03T07:52:46;9.32;;;2.78;;
32319;SDS011;19080;51.750;5.888;2022-08-03T07:55:17;14.93;;;2.80;;
32319;SDS011;19080;51.750;5.888;2022-08-03T07:57:44;14.00;;;2.47;;
32319;SDS011;19080;51.750;5.888;2022-08-03T08:00:17;22.77;;;2.75;;
32319;SDS011;19080;51.750;5.888;2022-08-03T08:02:44;8.60;;;2.42;;
32319;SDS011;19080;51.750;5.888;2022-08-03T08:05:10;16.77;;;3.03;;
32319;SDS011;19080;51.750;5.888;2022-08-03T08:07:37;9.82;;;2.15;;
32319;SDS011;19080;51.750;5.888;2022-08-03T08:10:05;13.25;;;2.28;;
32319;SDS011;19080;51.750;5.888;2022-08-03T08:12:31;9.38;;;2.25;;
32319;SDS011;19080;51.750;5.888;2022-08-03T08:14:57;7.20;;;2.42;;
32319;SDS011;19080;51.750;5.888;2022-08-03T08:17:24;11.02;;;2.80;;
32319;SDS011;19080;51.750;5.888;2022-08-03T08:19:50;10.27;;;2.17;;
32319;SDS011;19080;51.750;5.888;2022-08-03T08:22:18;16.83;;;2.75;;
32319;SDS011;19080;51.750;5.888;2022-08-03T08:24:56;10.55;;;2.53;;
32319;SDS011;19080;51.750;5.888;2022-08-03T08:27:22;16.55;;;3.22;;
32319;SDS011;19080;51.750;5.888;2022-08-03T08:29:48;9.77;;;2.50;;
32319;SDS011;19080;51.750;5.888;2022-08-03T08:32:22;10.25;;;2.33;;
32319;SDS011;19080;51.750;5.888;2022-08-03T08:34:49;12.95;;;3.40;;
32319;SDS011;19080;51.750;5.888;2022-08-03T08:37:15;14.90;;;2.90;;
32319;SDS011;19080;51.750;5.888;2022-08-03T08:39:41;13.05;;;2.67;;
32319;SDS011;19080;51.750;5.888;2022-08-03T08:42:08;16.77;;;3.00;;
32319;SDS011;19080;51.750;5.888;2022-08-03T08:44:35;12.55;;;2.50;;
32319;SDS011;19080;51.750;5.888;2022-08-03T08:47:01;13.68;;;2.83;;
32319;SDS011;19080;51.750;5.888;2022-08-03T08:49:28;15.20;;;2.33;;
32319;SDS011;19080;51.750;5.888;2022-08-03T08:51:55;12.07;;;2.83;;
32319;SDS011;19080;51.750;5.888;2022-08-03T08:54:26;10.98;;;2.70;;
32319;SDS011;19080;51.750;5.888;2022-08-03T08:56:54;13.82;;;2.70;;
32319;SDS011;19080;51.750;5.888;2022-08-03T08:59:21;13.50;;;2.47;;
32319;SDS011;19080;51.750;5.888;2022-08-03T09:01:49;11.95;;;2.40;;
32319;SDS011;19080;51.750;5.888;2022-08-03T09:04:15;12.35;;;2.60;;
32319;SDS011;19080;51.750;5.888;2022-08-03T09:06:42;13.88;;;2.40;;
32319;SDS011;19080;51.750;5.888;2022-08-03T09:09:29;9.63;;;3.00;;
32319;SDS011;19080;51.750;5.888;2022-08-03T09:12:15;13.55;;;2.97;;
32319;SDS011;19080;51.750;5.888;2022-08-03T09:15:21;12.07;;;2.50;;
32319;SDS011;19080;51.750;5.888;2022-08-03T09:17:48;7.80;;;2.15;;
32319;SDS011;19080;51.750;5.888;2022-08-03T09:20:17;13.40;;;2.67;;
32319;SDS011;19080;51.750;5.888;2022-08-03T09:25:35;13.80;;;2.30;;
32319;SDS011;19080;51.750;5.888;2022-08-03T09:28:03;9.02;;;2.28;;
32319;SDS011;19080;51.750;5.888;2022-08-03T09:30:30;14.15;;;2.28;;
32319;SDS011;19080;51.750;5.888;2022-08-03T09:33:04;10.18;;;2.28;;
32319;SDS011;19080;51.750;5.888;2022-08-03T09:35:31;12.00;;;2.53;;
32319;SDS011;19080;51.750;5.888;2022-08-03T09:38:18;10.52;;;1.98;;
32319;SDS011;19080;51.750;5.888;2022-08-03T09:43:15;10.77;;;2.05;;
32319;SDS011;19080;51.750;5.888;2022-08-03T09:45:42;11.02;;;2.33;;
32319;SDS011;19080;51.750;5.888;2022-08-03T09:48:28;9.82;;;2.17;;
32319;SDS011;19080;51.750;5.888;2022-08-03T09:50:56;9.57;;;2.33;;
32319;SDS011;19080;51.750;5.888;2022-08-03T09:53:42;12.27;;;2.10;;
32319;SDS011;19080;51.750;5.888;2022-08-03T09:56:36;10.13;;;2.28;;
32319;SDS011;19080;51.750;5.888;2022-08-03T09:59:02;8.75;;;2.05;;
32319;SDS011;19080;51.750;5.888;2022-08-03T10:01:32;13.50;;;2.72;;
32319;SDS011;19080;51.750;5.888;2022-08-03T10:04:00;12.57;;;2.47;;
32319;SDS011;19080;51.750;5.888;2022-08-03T10:06:29;12.05;;;2.60;;
32319;SDS011;19080;51.750;5.888;2022-08-03T10:09:06;12.82;;;2.63;;
32319;SDS011;19080;51.750;5.888;2022-08-03T10:11:33;11.38;;;2.90;;
32319;SDS011;19080;51.750;5.888;2022-08-03T10:14:08;8.90;;;2.60;;
32319;SDS011;19080;51.750;5.888;2022-08-03T10:16:36;12.52;;;2.70;;
32319;SDS011;19080;51.750;5.888;2022-08-03T10:19:03;11.93;;;2.63;;
32319;SDS011;19080;51.750;5.888;2022-08-03T10:21:31;11.82;;;2.40;;
32319;SDS011;19080;51.750;5.888;2022-08-03T10:24:00;11.52;;;2.50;;
32319;SDS011;19080;51.750;5.888;2022-08-03T10:26:27;18.95;;;2.97;;
32319;SDS011;19080;51.750;5.888;2022-08-03T10:28:56;20.08;;;3.40;;
32319;SDS011;19080;51.750;5.888;2022-08-03T10:31:23;13.25;;;3.17;;
32319;SDS011;19080;51.750;5.888;2022-08-03T10:33:51;19.17;;;2.85;;
32319;SDS011;19080;51.750;5.888;2022-08-03T10:36:21;12.48;;;2.95;;
32319;SDS011;19080;51.750;5.888;2022-08-03T10:38:50;14.75;;;2.40;;
32319;SDS011;19080;51.750;5.888;2022-08-03T10:41:19;9.67;;;2.97;;
32319;SDS011;19080;51.750;5.888;2022-08-03T10:43:51;8.25;;;2.42;;
32319;SDS011;19080;51.750;5.888;2022-08-03T10:48:45;11.25;;;3.08;;
32319;SDS011;19080;51.750;5.888;2022-08-03T10:51:12;14.77;;;2.92;;
32319;SDS011;19080;51.750;5.888;2022-08-03T10:53:39;17.70;;;3.30;;
32319;SDS011;19080;51.750;5.888;2022-08-03T10:59:16;15.25;;;3.55;;
32319;SDS011;19080;51.750;5.888;2022-08-03T11:01:54;17.15;;;3.28;;
32319;SDS011;19080;51.750;5.888;2022-08-03T11:04:26;19.95;;;3.47;;
32319;SDS011;19080;51.750;5.888;2022-08-03T11:09:43;11.32;;;2.95;;
32319;SDS011;19080;51.750;5.888;2022-08-03T11:12:22;15.52;;;3.55;;
32319;SDS011;19080;51.750;5.888;2022-08-03T11:14:56;17.33;;;3.65;;
32319;SDS011;19080;51.750;5.888;2022-08-03T11:17:23;16.75;;;4.30;;
32319;SDS011;19080;51.750;5.888;2022-08-03T11:19:50;22.27;;;3.78;;
32319;SDS011;19080;51.750;5.888;2022-08-03T11:22:23;19.80;;;3.70;;
32319;SDS011;19080;51.750;5.888;2022-08-03T11:27:19;16.80;;;3.50;;
32319;SDS011;19080;51.750;5.888;2022-08-03T11:35:12;20.50;;;4.43;;
32319;SDS011;19080;51.750;5.888;2022-08-03T11:43:07;22.95;;;4.10;;
32319;SDS011;19080;51.750;5.888;2022-08-03T11:45:34;17.48;;;3.58;;
32319;SDS011;19080;51.750;5.888;2022-08-03T11:48:14;18.88;;;3.85;;
32319;SDS011;19080;51.750;5.888;2022-08-03T11:50:41;17.02;;;3.72;;
32319;SDS011;19080;51.750;5.888;2022-08-03T11:53:14;13.80;;;3.70;;
32319;SDS011;19080;51.750;5.888;2022-08-03T11:55:42;15.02;;;4.25;;
32319;SDS011;19080;51.750;5.888;2022-08-03T11:58:16;16.92;;;3.50;;
32319;SDS011;19080;51.750;5.888;2022-08-03T12:01:05;21.40;;;4.47;;
32319;SDS011;19080;51.750;5.888;2022-08-03T12:03:33;17.58;;;3.45;;
32319;SDS011;19080;51.750;5.888;2022-08-03T12:05:59;21.42;;;4.30;;
32319;SDS011;19080;51.750;5.888;2022-08-03T12:08:31;25.98;;;4.30;;
32319;SDS011;19080;51.750;5.888;2022-08-03T12:10:59;25.75;;;4.00;;
32319;SDS011;19080;51.750;5.888;2022-08-03T12:13:25;24.15;;;4.00;;
32319;SDS011;19080;51.750;5.888;2022-08-03T12:18:45;17.48;;;3.78;;
32319;SDS011;19080;51.750;5.888;2022-08-03T12:21:18;10.82;;;2.70;;
32319;SDS011;19080;51.750;5.888;2022-08-03T12:23:44;17.95;;;3.55;;
32319;SDS011;19080;51.750;5.888;2022-08-03T12:26:10;15.25;;;2.80;;
32319;SDS011;19080;51.750;5.888;2022-08-03T12:28:38;13.20;;;2.92;;
32319;SDS011;19080;51.750;5.888;2022-08-03T12:31:15;10.57;;;2.90;;
32319;SDS011;19080;51.750;5.888;2022-08-03T12:33:55;11.25;;;2.40;;
32319;SDS011;19080;51.750;5.888;2022-08-03T12:36:22;10.93;;;2.65;;
32319;SDS011;19080;51.750;5.888;2022-08-03T12:38:55;17.33;;;3.22;;
32319;SDS011;19080;51.750;5.888;2022-08-03T12:41:32;16.42;;;3.40;;
32319;SDS011;19080;51.750;5.888;2022-08-03T12:44:01;10.93;;;2.38;;
32319;SDS011;19080;51.750;5.888;2022-08-03T12:46:38;11.65;;;2.40;;
32319;SDS011;19080;51.750;5.888;2022-08-03T12:49:11;11.13;;;2.58;;
32319;SDS011;19080;51.750;5.888;2022-08-03T12:54:07;9.70;;;2.10;;
32319;SDS011;19080;51.750;5.888;2022-08-03T12:56:33;11.27;;;2.75;;
32319;SDS011;19080;51.750;5.888;2022-08-03T12:59:22;13.40;;;2.88;;
32319;SDS011;19080;51.750;5.888;2022-08-03T13:01:47;13.13;;;2.83;;
32319;SDS011;19080;51.750;5.888;2022-08-03T13:04:24;11.52;;;2.30;;
32319;SDS011;19080;51.750;5.888;2022-08-03T13:06:57;11.77;;;2.42;;
32319;SDS011;19080;51.750;5.888;2022-08-03T13:09:28;14.35;;;2.40;;
32319;SDS011;19080;51.750;5.888;2022-08-03T13:12:13;15.70;;;3.20;;
32319;SDS011;19080;51.750;5.888;2022-08-03T13:14:45;7.50;;;2.33;;
32319;SDS011;19080;51.750;5.888;2022-08-03T13:17:12;10.63;;;2.35;;
32319;SDS011;19080;51.750;5.888;2022-08-03T13:19:38;11.23;;;2.30;;
32319;SDS011;19080;51.750;5.888;2022-08-03T13:24:44;12.77;;;2.60;;
32319;SDS011;19080;51.750;5.888;2022-08-03T13:27:11;14.52;;;2.45;;
32319;SDS011;19080;51.750;5.888;2022-08-03T13:29:58;9.82;;;2.60;;
32319;SDS011;19080;51.750;5.888;2022-08-03T13:32:24;11.90;;;2.25;;
32319;SDS011;19080;51.750;5.888;2022-08-03T13:34:51;9.13;;;1.92;;
32319;SDS011;19080;51.750;5.888;2022-08-03T13:37:17;8.50;;;2.42;;
32319;SDS011;19080;51.750;5.888;2022-08-03T13:39:44;10.00;;;2.33;;
32319;SDS011;19080;51.750;5.888;2022-08-03T13:42:25;10.60;;;2.42;;
32319;SDS011;19080;51.750;5.888;2022-08-03T13:44:52;10.85;;;2.40;;
32319;SDS011;19080;51.750;5.888;2022-08-03T13:47:18;10.93;;;2.00;;
32319;SDS011;19080;51.750;5.888;2022-08-03T13:49:45;6.05;;;1.50;;
32319;SDS011;19080;51.750;5.888;2022-08-03T13:52:30;8.20;;;2.03;;
32319;SDS011;19080;51.750;5.888;2022-08-03T13:54:57;5.00;;;1.50;;
32319;SDS011;19080;51.750;5.888;2022-08-03T13:57:24;6.45;;;1.73;;
32319;SDS011;19080;51.750;5.888;2022-08-03T14:00:10;4.53;;;1.70;;
32319;SDS011;19080;51.750;5.888;2022-08-03T14:02:37;11.18;;;1.80;;
32319;SDS011;19080;51.750;5.888;2022-08-03T14:05:04;7.22;;;1.50;;
32319;SDS011;19080;51.750;5.888;2022-08-03T14:07:30;5.22;;;1.92;;
32319;SDS011;19080;51.750;5.888;2022-08-03T14:09:57;7.25;;;1.73;;
32319;SDS011;19080;51.750;5.888;2022-08-03T14:12:23;4.47;;;1.35;;
32319;SDS011;19080;51.750;5.888;2022-08-03T14:14:50;5.30;;;1.45;;
32319;SDS011;19080;51.750;5.888;2022-08-03T14:17:16;8.48;;;1.85;;
32319;SDS011;19080;51.750;5.888;2022-08-03T14:19:43;7.07;;;1.70;;
32319;SDS011;19080;51.750;5.888;2022-08-03T14:22:19;6.85;;;2.00;;
32319;SDS011;19080;51.750;5.888;2022-08-03T14:24:46;7.97;;;1.80;;
32319;SDS011;19080;51.750;5.888;2022-08-03T14:27:12;11.52;;;2.08;;
32319;SDS011;19080;51.750;5.888;2022-08-03T14:29:38;5.95;;;1.55;;
32319;SDS011;19080;51.750;5.888;2022-08-03T14:32:05;7.15;;;1.85;;
32319;SDS011;19080;51.750;5.888;2022-08-03T14:34:38;6.35;;;2.38;;
32319;SDS011;19080;51.750;5.888;2022-08-03T14:37:04;5.35;;;2.10;;
32319;SDS011;19080;51.750;5.888;2022-08-03T14:39:31;14.30;;;2.20;;
32319;SDS011;19080;51.750;5.888;2022-08-03T14:42:17;6.07;;;1.65;;
32319;SDS011;19080;51.750;5.888;2022-08-03T14:44:45;5.45;;;1.60;;
32319;SDS011;19080;51.750;5.888;2022-08-03T14:47:12;7.10;;;1.50;;
32319;SDS011;19080;51.750;5.888;2022-08-03T14:49:39;6.45;;;1.50;;
32319;SDS011;19080;51.750;5.888;2022-08-03T14:52:25;6.50;;;1.38;;
32319;SDS011;19080;51.750;5.888;2022-08-03T14:54:51;11.02;;;1.77;;
32319;SDS011;19080;51.750;5.888;2022-08-03T14:57:18;9.15;;;1.63;;
32319;SDS011;19080;51.750;5.888;2022-08-03T14:59:45;8.90;;;1.38;;
32319;SDS011;19080;51.750;5.888;2022-08-03T15:02:23;5.55;;;1.70;;
32319;SDS011;19080;51.750;5.888;2022-08-03T15:04:50;12.07;;;2.20;;
32319;SDS011;19080;51.750;5.888;2022-08-03T15:07:16;10.02;;;2.25;;
32319;SDS011;19080;51.750;5.888;2022-08-03T15:09:43;4.75;;;1.33;;
32319;SDS011;19080;51.750;5.888;2022-08-03T15:12:09;6.07;;;1.90;;
32319;SDS011;19080;51.750;5.888;2022-08-03T15:14:36;6.82;;;1.80;;
32319;SDS011;19080;51.750;5.888;2022-08-03T15:17:03;9.50;;;1.65;;
32319;SDS011;19080;51.750;5.888;2022-08-03T15:19:29;6.43;;;1.50;;
32319;SDS011;19080;51.750;5.888;2022-08-03T15:22:16;6.97;;;1.60;;
32319;SDS011;19080;51.750;5.888;2022-08-03T15:24:50;5.90;;;1.52;;
32319;SDS011;19080;51.750;5.888;2022-08-03T15:27:16;9.57;;;1.90;;
32319;SDS011;19080;51.750;5.888;2022-08-03T15:29:43;7.95;;;1.83;;
32319;SDS011;19080;51.750;5.888;2022-08-03T15:32:29;9.52;;;2.00;;
32319;SDS011;19080;51.750;5.888;2022-08-03T15:34:56;6.82;;;1.48;;
32319;SDS011;19080;51.750;5.888;2022-08-03T15:37:22;5.40;;;1.45;;
32319;SDS011;19080;51.750;5.888;2022-08-03T15:39:51;7.55;;;2.13;;
32319;SDS011;19080;51.750;5.888;2022-08-03T15:42:29;8.77;;;2.17;;
32319;SDS011;19080;51.750;5.888;2022-08-03T15:44:55;7.57;;;1.70;;
32319;SDS011;19080;51.750;5.888;2022-08-03T15:47:22;5.63;;;2.53;;
32319;SDS011;19080;51.750;5.888;2022-08-03T15:49:48;12.18;;;1.75;;
32319;SDS011;19080;51.750;5.888;2022-08-03T15:52:15;6.30;;;1.85;;
32319;SDS011;19080;51.750;5.888;2022-08-03T15:54:41;6.05;;;1.60;;